Merced Regional Macready Field Merced US
ICAO: KMCE
IATA: MCE
Category: Medium
Scheduled Services: No

Elevation: 155 ft
TransAlt. 18000 ft.

Airport Communications:
NORCAL APP/DEP:120.95
ASOS:132.175
CTAF/UNICOM:122.7

KMCE Zoom In..

If you have problems with the map follow the link
https://www.worldairports.se/pages/airport.php?
ICAO=KMCE

Runways:

(A) RW 12 length 5914 ft width 150 ft
---- / hdg 123

(B) RW 30 length 5914 ft width 150 ft
ILS 109.30 / hdg 303

Location; KMCE
Day. 22 / Time. 11.53 Zulu
* Altimeter: 30.20
* Temperature: 11° c. 51.8°f.
* Wind from: 000° Speed 00 kn.
Dewpoint: 10° c.
Visibility: 6 Statute Miles.
Clouds: Overcast 4300 ft.
Conditions: Mist.

KMCE 221153Z AUTO 00000KT 6SM BR OVC043 11/10 A3020 RMK AO2 RAE07 SLP227 P0000 60002 70002 T01110100 10128 20111 50000


Wind - Calm.

 
 
jpsmedia worldairports.se 2020   terms of use